Fleur N — 5BTG3 — position and weather

sailwx.info

Track history (hours):
 
Tides and Currents Weather Stations Pressure Air Temp Water Temp Dewpoint Dewpoint Depression Visibility Wind Speed Wind Dir Waves Ship Positions

Fleur N

Last reported at 2017-Nov-19 00:14 UTC. Time now 2017-Nov-21 06:20 UTC.
Position N 41°19' E 002°10'.

Length 212 m; draft 7.7 m.

Type: Cargo ship. MMSI: 209787000.

Date/timePositionNaut miles runAvg speedWind from/ knotsBaromVisibWave heightAir tempDewpointWater temp
2017-Nov-19 00:14N 41°19' E 002°10'1 0.0
2017-Nov-16 23:10N 41°19' E 002°12'8 9.4
2017-Nov-16 22:16N 41°11' E 002°09'311.3
2017-Nov-16 22:00N 41°08' E 002°07'611.3
2017-Nov-16 21:30N 41°03' E 002°04'611.8
2017-Nov-16 21:00N 40°58' E 001°60'812.4
2017-Nov-16 20:20N 40°51' E 001°54'21110.5
2017-Nov-16 00:20N 37°47' W 000°19'413.1
2017-Nov-16 00:00N 37°43' W 000°22'713.0
2017-Nov-15 23:30N 37°38' W 000°27'713.0
2017-Nov-15 23:00N 37°32' W 000°31'713.0
2017-Nov-15 22:30N 37°28' W 000°38'1213.0
2017-Nov-15 21:35N 37°20' W 000°49'113.0
2017-Nov-15 21:30N 37°19' W 000°50'612.8
2017-Nov-15 21:00N 37°15' W 000°56'612.7
2017-Nov-15 20:30N 37°11' W 001°02'21012.3
2017-Nov-15 03:32N 36°06' W 005°10'112.2
2017-Nov-15 03:26N 36°06' W 005°12'512.2
2017-Nov-15 03:00N 36°05' W 005°18'5 9.3
2017-Nov-15 02:30N 36°07' W 005°23'3 1.3
2017-Nov-15 00:03N 36°10' W 005°25'0 0.0
2017-Nov-14 23:45N 36°10' W 005°25'0 0.2
2017-Nov-14 23:29N 36°10' W 005°24'0 0.0
2017-Nov-14 21:00N 36°10' W 005°24'0 0.0
2017-Nov-14 04:39N 36°10' W 005°24'0 0.1
2017-Nov-14 04:30N 36°10' W 005°24'0 0.0
2017-Nov-14 04:00N 36°10' W 005°24'0 0.1
2017-Nov-14 03:24N 36°10' W 005°24'0 0.1
2017-Nov-14 03:00N 36°10' W 005°24'0 0.0
2017-Nov-14 02:30N 36°10' W 005°24'0 0.0
2017-Nov-14 02:00N 36°10' W 005°24'0 0.0
2017-Nov-14 01:26N 36°10' W 005°24'0 0.0
2017-Nov-14 00:58N 36°10' W 005°24'0 0.0
2017-Nov-14 00:28N 36°10' W 005°24'0 0.0
2017-Nov-13 23:58N 36°10' W 005°24'0 0.1
2017-Nov-13 23:25N 36°10' W 005°24'0 0.1
2017-Nov-13 22:55N 36°10' W 005°24'0 0.1
2017-Nov-13 22:25N 36°10' W 005°24'0 0.1
2017-Nov-13 21:58N 36°10' W 005°24'24 0.5
2017-Nov-11 20:40N 36°19' W 004°56'0 0.8
2017-Nov-11 20:30N 36°19' W 004°56'1 1.0
2017-Nov-11 19:35N 36°18' W 004°57'0 1.1
2017-Nov-11 19:29N 36°18' W 004°57'21 1.1
2017-Nov-11 00:58N 36°05' W 005°18'612.5
2017-Nov-11 00:31N 36°05' W 005°25'0 0.4
2017-Nov-11 00:00N 36°05' W 005°25'0 0.0
2017-Nov-10 23:26N 36°05' W 005°25'0 0.1
2017-Nov-10 23:00N 36°05' W 005°25'0 0.0
2017-Nov-10 22:28N 36°05' W 005°25'0 0.1
2017-Nov-10 21:58N 36°05' W 005°25'0 0.0
2017-Nov-10 21:28N 36°05' W 005°25'0 0.0
2017-Nov-10 21:00N 36°05' W 005°25'0 0.2
2017-Nov-10 20:27N 36°05' W 005°25'0 0.7
2017-Nov-10 20:00N 36°05' W 005°24'2 4.5
2017-Nov-10 19:30N 36°05' W 005°22'2 3.7
2017-Nov-10 19:00N 36°05' W 005°19'611.8
2017-Nov-10 18:30N 36°05' W 005°12'  
Track history (hours):
 
Tides and Currents Weather Stations Pressure Air Temp Water Temp Dewpoint Dewpoint Depression Visibility Wind Speed Wind Dir Waves Ship Positions

Fleur N

Last reported at 2017-Nov-19 00:14 UTC. Time now 2017-Nov-21 06:20 UTC.
Position N 41°19' E 002°10'.

Length 212 m; draft 7.7 m.

Type: Cargo ship. MMSI: 209787000.

Date/timePositionNaut miles runAvg speedWind from/ knotsBaromVisibWave heightAir tempDewpointWater temp
2017-Nov-19 00:14N 41°19' E 002°10'1 0.0
2017-Nov-16 23:10N 41°19' E 002°12'8 9.4
2017-Nov-16 22:16N 41°11' E 002°09'311.3
2017-Nov-16 22:00N 41°08' E 002°07'611.3
2017-Nov-16 21:30N 41°03' E 002°04'611.8
2017-Nov-16 21:00N 40°58' E 001°60'812.4
2017-Nov-16 20:20N 40°51' E 001°54'21110.5
2017-Nov-16 00:20N 37°47' W 000°19'413.1
2017-Nov-16 00:00N 37°43' W 000°22'713.0
2017-Nov-15 23:30N 37°38' W 000°27'713.0
2017-Nov-15 23:00N 37°32' W 000°31'713.0
2017-Nov-15 22:30N 37°28' W 000°38'1213.0
2017-Nov-15 21:35N 37°20' W 000°49'113.0
2017-Nov-15 21:30N 37°19' W 000°50'612.8
2017-Nov-15 21:00N 37°15' W 000°56'612.7
2017-Nov-15 20:30N 37°11' W 001°02'21012.3
2017-Nov-15 03:32N 36°06' W 005°10'112.2
2017-Nov-15 03:26N 36°06' W 005°12'512.2
2017-Nov-15 03:00N 36°05' W 005°18'5 9.3
2017-Nov-15 02:30N 36°07' W 005°23'3 1.3
2017-Nov-15 00:03N 36°10' W 005°25'0 0.0
2017-Nov-14 23:45N 36°10' W 005°25'0 0.2
2017-Nov-14 23:29N 36°10' W 005°24'0 0.0
2017-Nov-14 21:00N 36°10' W 005°24'0 0.0
2017-Nov-14 04:39N 36°10' W 005°24'0 0.1
2017-Nov-14 04:30N 36°10' W 005°24'0 0.0
2017-Nov-14 04:00N 36°10' W 005°24'0 0.1
2017-Nov-14 03:24N 36°10' W 005°24'0 0.1
2017-Nov-14 03:00N 36°10' W 005°24'0 0.0
2017-Nov-14 02:30N 36°10' W 005°24'0 0.0
2017-Nov-14 02:00N 36°10' W 005°24'0 0.0
2017-Nov-14 01:26N 36°10' W 005°24'0 0.0
2017-Nov-14 00:58N 36°10' W 005°24'0 0.0
2017-Nov-14 00:28N 36°10' W 005°24'0 0.0
2017-Nov-13 23:58N 36°10' W 005°24'0 0.1
2017-Nov-13 23:25N 36°10' W 005°24'0 0.1
2017-Nov-13 22:55N 36°10' W 005°24'0 0.1
2017-Nov-13 22:25N 36°10' W 005°24'0 0.1
2017-Nov-13 21:58N 36°10' W 005°24'24 0.5
2017-Nov-11 20:40N 36°19' W 004°56'0 0.8
2017-Nov-11 20:30N 36°19' W 004°56'1 1.0
2017-Nov-11 19:35N 36°18' W 004°57'0 1.1
2017-Nov-11 19:29N 36°18' W 004°57'21 1.1
2017-Nov-11 00:58N 36°05' W 005°18'612.5
2017-Nov-11 00:31N 36°05' W 005°25'0 0.4
2017-Nov-11 00:00N 36°05' W 005°25'0 0.0
2017-Nov-10 23:26N 36°05' W 005°25'0 0.1
2017-Nov-10 23:00N 36°05' W 005°25'0 0.0
2017-Nov-10 22:28N 36°05' W 005°25'0 0.1
2017-Nov-10 21:58N 36°05' W 005°25'0 0.0
2017-Nov-10 21:28N 36°05' W 005°25'0 0.0
2017-Nov-10 21:00N 36°05' W 005°25'0 0.2
2017-Nov-10 20:27N 36°05' W 005°25'0 0.7
2017-Nov-10 20:00N 36°05' W 005°24'2 4.5
2017-Nov-10 19:30N 36°05' W 005°22'2 3.7
2017-Nov-10 19:00N 36°05' W 005°19'611.8
2017-Nov-10 18:30N 36°05' W 005°12'  

Dump ship's entire track history